createdAt,value
2018-05-25T00:01:08.530Z,1016.68
2018-05-25T00:02:18.486Z,1016.65
2018-05-25T00:03:28.505Z,1016.69
2018-05-25T00:04:38.469Z,1016.65
2018-05-25T00:05:48.443Z,1016.64
2018-05-25T00:06:58.432Z,1016.59
2018-05-25T00:08:08.405Z,1016.61
2018-05-25T00:09:18.373Z,1016.66
2018-05-25T00:10:28.380Z,1016.64
2018-05-25T00:11:38.355Z,1016.69
2018-05-25T00:12:48.328Z,1016.68
2018-05-25T00:13:58.307Z,1016.67
2018-05-25T00:15:08.273Z,1016.7
2018-05-25T00:16:17.993Z,1016.66
2018-05-25T00:17:27.965Z,1016.68
2018-05-25T00:18:37.942Z,1016.67
2018-05-25T00:19:47.930Z,1016.72
2018-05-25T00:20:57.649Z,1016.7
2018-05-25T00:22:07.616Z,1016.7
2018-05-25T00:23:17.591Z,1016.67
2018-05-25T00:24:27.569Z,1016.68
2018-05-25T00:25:37.552Z,1016.71
2018-05-25T00:26:47.523Z,1016.64
2018-05-25T00:27:57.499Z,1016.71
2018-05-25T00:29:07.489Z,1016.66
2018-05-25T00:30:17.206Z,1016.64
2018-05-25T00:31:27.192Z,1016.69
2018-05-25T00:32:37.183Z,1016.66
2018-05-25T00:33:47.176Z,1016.68
2018-05-25T00:34:56.902Z,1016.65
2018-05-25T00:36:06.098Z,1016.71
2018-05-25T00:37:15.808Z,1016.73
2018-05-25T00:38:25.535Z,1016.71
2018-05-25T00:39:35.242Z,1016.72
2018-05-25T00:40:44.966Z,1016.72
2018-05-25T00:41:54.682Z,1016.67
2018-05-25T00:43:04.659Z,1016.69
2018-05-25T00:44:14.368Z,1016.67
2018-05-25T00:45:24.076Z,1016.68
2018-05-25T00:46:34.037Z,1016.7
2018-05-25T00:47:44.002Z,1016.65
2018-05-25T00:48:53.727Z,1016.69
2018-05-25T00:50:03.701Z,1016.66
2018-05-25T00:51:13.407Z,1016.59
2018-05-25T00:52:23.118Z,1016.61
2018-05-25T00:53:33.094Z,1016.6
2018-05-25T00:54:43.070Z,1016.59
2018-05-25T00:55:53.038Z,1016.6
2018-05-25T00:57:02.747Z,1016.59
2018-05-25T00:58:12.709Z,1016.62
2018-05-25T00:59:22.673Z,1016.66
2018-05-25T01:00:32.665Z,1016.63
2018-05-25T01:01:42.641Z,1016.67
2018-05-25T01:02:52.109Z,1016.66
2018-05-25T01:04:01.837Z,1016.67
2018-05-25T01:05:11.801Z,1016.67
2018-05-25T01:06:21.778Z,1016.65
2018-05-25T01:07:31.753Z,1016.63
2018-05-25T01:08:41.520Z,1016.65
2018-05-25T01:09:51.485Z,1016.59
2018-05-25T01:11:01.447Z,1016.64
2018-05-25T01:12:11.168Z,1016.6
2018-05-25T01:13:20.883Z,1016.64
2018-05-25T01:14:30.847Z,1016.64
2018-05-25T01:15:40.813Z,1016.65
2018-05-25T01:16:50.771Z,1016.64
2018-05-25T01:18:00.731Z,1016.62
2018-05-25T01:19:10.470Z,1016.66
2018-05-25T01:20:19.668Z,1016.64
2018-05-25T01:21:29.636Z,1016.66
2018-05-25T01:22:39.360Z,1016.65
2018-05-25T01:23:49.075Z,1016.64
2018-05-25T01:24:59.047Z,1016.69
2018-05-25T01:26:09.033Z,1016.66
2018-05-25T01:27:18.757Z,1016.65
2018-05-25T01:28:28.476Z,1016.67
2018-05-25T01:29:38.446Z,1016.66
2018-05-25T01:30:48.172Z,1016.67
2018-05-25T01:31:58.146Z,1016.67
2018-05-25T01:33:08.096Z,1016.66
2018-05-25T01:34:18.059Z,1016.62
2018-05-25T01:35:27.770Z,1016.6
2018-05-25T01:36:37.480Z,1016.63
2018-05-25T01:37:47.454Z,1016.61
2018-05-25T01:38:57.430Z,1016.63
2018-05-25T01:40:07.167Z,1016.6
2018-05-25T01:41:16.884Z,1016.61
2018-05-25T01:42:26.343Z,1016.66
2018-05-25T01:43:36.320Z,1016.65
2018-05-25T01:44:46.034Z,1016.64
2018-05-25T01:45:56.016Z,1016.62
2018-05-25T01:47:05.731Z,1016.63
2018-05-25T01:48:15.445Z,1016.65
2018-05-25T01:49:25.163Z,1016.68
2018-05-25T01:50:35.130Z,1016.66
2018-05-25T01:51:44.840Z,1016.65
2018-05-25T01:52:54.805Z,1016.68
2018-05-25T01:54:04.766Z,1016.69
2018-05-25T01:55:14.750Z,1016.68
2018-05-25T01:56:24.450Z,1016.63
2018-05-25T01:57:34.420Z,1016.66
2018-05-25T01:58:44.390Z,1016.64
2018-05-25T01:59:54.360Z,1016.65
2018-05-25T02:01:04.334Z,1016.63
2018-05-25T02:02:14.320Z,1016.66
2018-05-25T02:03:24.301Z,1016.69
2018-05-25T02:04:34.268Z,1016.66
2018-05-25T02:05:44.224Z,1016.7
2018-05-25T02:06:54.236Z,1016.71
2018-05-25T02:08:04.270Z,1016.69
2018-05-25T02:09:14.250Z,1016.7
2018-05-25T02:10:23.708Z,1016.68
2018-05-25T02:11:33.419Z,1016.69
2018-05-25T02:12:43.131Z,1016.73
2018-05-25T02:13:53.093Z,1016.66
2018-05-25T02:15:03.054Z,1016.65
2018-05-25T02:16:12.765Z,1016.68
2018-05-25T02:17:22.472Z,1016.63
2018-05-25T02:18:32.483Z,1016.66
2018-05-25T02:19:42.202Z,1016.66
2018-05-25T02:20:52.175Z,1016.67
2018-05-25T02:22:01.887Z,1016.72
2018-05-25T02:23:11.606Z,1016.69
2018-05-25T02:24:21.579Z,1016.69
2018-05-25T02:25:31.537Z,1016.68
2018-05-25T02:26:41.501Z,1016.65
2018-05-25T02:27:51.468Z,1016.63
2018-05-25T02:29:01.185Z,1016.64
2018-05-25T02:30:11.159Z,1016.62
2018-05-25T02:31:21.138Z,1016.61
2018-05-25T02:32:31.113Z,1016.58
2018-05-25T02:33:41.092Z,1016.62
2018-05-25T02:34:51.078Z,1016.62
2018-05-25T02:36:01.056Z,1016.59
2018-05-25T02:37:10.778Z,1016.59
2018-05-25T02:38:20.484Z,1016.58
2018-05-25T02:39:30.206Z,1016.58
2018-05-25T02:40:39.919Z,1016.56
2018-05-25T02:41:49.621Z,1016.54
2018-05-25T02:42:59.600Z,1016.56
2018-05-25T02:44:09.333Z,1016.56
2018-05-25T02:45:19.054Z,1016.59
2018-05-25T02:46:29.027Z,1016.55
2018-05-25T02:47:38.996Z,1016.51
2018-05-25T02:48:48.975Z,1016.51
2018-05-25T02:49:58.934Z,1016.53
2018-05-25T02:51:08.911Z,1016.51
2018-05-25T02:52:18.386Z,1016.52
2018-05-25T02:53:28.117Z,1016.5
2018-05-25T02:54:37.829Z,1016.49
2018-05-25T02:55:47.553Z,1016.5
2018-05-25T02:56:57.548Z,1016.49
2018-05-25T02:58:07.522Z,1016.51
2018-05-25T02:59:17.489Z,1016.51
2018-05-25T03:00:27.479Z,1016.53
2018-05-25T03:01:37.451Z,1016.5
2018-05-25T03:02:46.909Z,1016.55
2018-05-25T03:03:56.880Z,1016.5
2018-05-25T03:05:06.873Z,1016.5
2018-05-25T03:06:16.855Z,1016.51
2018-05-25T03:07:26.820Z,1016.54
2018-05-25T03:08:36.528Z,1016.61
2018-05-25T03:09:46.503Z,1016.52
2018-05-25T03:10:56.217Z,1016.47
2018-05-25T03:12:06.193Z,1016.43
2018-05-25T03:13:16.157Z,1016.44
2018-05-25T03:14:25.897Z,1016.45
2018-05-25T03:15:35.862Z,1016.45
2018-05-25T03:16:45.585Z,1016.45
2018-05-25T03:17:55.688Z,1016.49
2018-05-25T03:19:05.659Z,1016.5
2018-05-25T03:20:15.372Z,1016.47
2018-05-25T03:21:25.335Z,1016.41
2018-05-25T03:22:35.311Z,1016.44
2018-05-25T03:23:45.026Z,1016.45
2018-05-25T03:24:55.007Z,1016.41
2018-05-25T03:26:05.005Z,1016.43
2018-05-25T03:27:14.550Z,1016.46
2018-05-25T03:28:24.518Z,1016.45
2018-05-25T03:29:34.224Z,1016.41
2018-05-25T03:30:43.939Z,1016.42
2018-05-25T03:31:53.921Z,1016.44
2018-05-25T03:33:03.910Z,1016.43
2018-05-25T03:34:13.609Z,1016.45
2018-05-25T03:35:23.339Z,1016.45
2018-05-25T03:36:32.803Z,1016.45
2018-05-25T03:37:42.776Z,1016.47
2018-05-25T03:38:52.756Z,1016.45
2018-05-25T03:40:02.737Z,1016.48
2018-05-25T03:41:12.720Z,1016.51
2018-05-25T03:42:22.179Z,1016.52
2018-05-25T03:43:31.888Z,1016.53
2018-05-25T03:44:41.854Z,1016.53
2018-05-25T03:45:51.822Z,1016.49
2018-05-25T03:47:01.797Z,1016.5
2018-05-25T03:48:11.516Z,1016.55
2018-05-25T03:49:21.490Z,1016.51
2018-05-25T03:50:31.470Z,1016.55
2018-05-25T03:51:41.441Z,1016.57
2018-05-25T03:52:51.409Z,1016.58
2018-05-25T03:54:01.373Z,1016.52
2018-05-25T03:55:11.351Z,1016.53
2018-05-25T03:56:21.347Z,1016.57
2018-05-25T03:57:31.325Z,1016.6
2018-05-25T03:58:41.302Z,1016.59
2018-05-25T03:59:51.276Z,1016.64
2018-05-25T04:01:01.249Z,1016.61
2018-05-25T04:02:11.221Z,1016.61
2018-05-25T04:03:20.669Z,1016.59
2018-05-25T04:04:30.637Z,1016.57
2018-05-25T04:05:40.614Z,1016.58
2018-05-25T04:06:50.323Z,1016.6
2018-05-25T04:08:00.065Z,1016.51
2018-05-25T04:09:10.065Z,1016.61
2018-05-25T04:10:20.037Z,1016.54
2018-05-25T04:11:29.998Z,1016.59
2018-05-25T04:12:39.956Z,1016.56
2018-05-25T04:13:49.926Z,1016.57
2018-05-25T04:14:59.687Z,1016.56
2018-05-25T04:16:09.659Z,1016.51
2018-05-25T04:17:19.391Z,1016.53
2018-05-25T04:18:29.102Z,1016.57
2018-05-25T04:19:39.072Z,1016.52
2018-05-25T04:20:49.050Z,1016.52
2018-05-25T04:21:59.025Z,1016.54
2018-05-25T04:23:08.998Z,1016.54
2018-05-25T04:24:18.977Z,1016.57
2018-05-25T04:25:28.955Z,1016.55
2018-05-25T04:26:38.680Z,1016.56
2018-05-25T04:27:48.390Z,1016.57
2018-05-25T04:28:58.360Z,1016.59
2018-05-25T04:30:08.070Z,1016.6
2018-05-25T04:31:18.040Z,1016.57
2018-05-25T04:32:28.011Z,1016.58
2018-05-25T04:33:37.467Z,1016.59
2018-05-25T04:34:47.438Z,1016.59
2018-05-25T04:35:57.458Z,1016.57
2018-05-25T04:37:06.917Z,1016.6
2018-05-25T04:38:16.630Z,1016.62
2018-05-25T04:39:26.628Z,1016.62
2018-05-25T04:40:36.599Z,1016.59
2018-05-25T04:41:46.312Z,1016.64
2018-05-25T04:42:56.284Z,1016.57
2018-05-25T04:44:06.252Z,1016.61
2018-05-25T04:45:15.971Z,1016.58
2018-05-25T04:46:25.943Z,1016.59
2018-05-25T04:47:35.661Z,1016.56
2018-05-25T04:48:45.655Z,1016.53
2018-05-25T04:49:55.381Z,1016.55
2018-05-25T04:51:05.099Z,1016.54
2018-05-25T04:52:15.074Z,1016.55
2018-05-25T04:53:24.863Z,1016.52
2018-05-25T04:54:34.838Z,1016.55
2018-05-25T04:55:44.802Z,1016.55
2018-05-25T04:56:54.802Z,1016.63
2018-05-25T04:58:04.526Z,1016.58
2018-05-25T04:59:14.495Z,1016.57
2018-05-25T05:00:24.201Z,1016.61
2018-05-25T05:01:34.168Z,1016.59
2018-05-25T05:02:43.624Z,1016.58
2018-05-25T05:03:53.599Z,1016.59
2018-05-25T05:05:03.597Z,1016.52
2018-05-25T05:06:13.627Z,1016.52
2018-05-25T05:07:23.610Z,1016.51
2018-05-25T05:08:33.605Z,1016.5
2018-05-25T05:09:43.074Z,1016.54
2018-05-25T05:10:53.053Z,1016.52
2018-05-25T05:12:02.758Z,1016.53
2018-05-25T05:13:12.473Z,1016.51
2018-05-25T05:14:22.197Z,1016.48
2018-05-25T05:15:31.907Z,1016.49
2018-05-25T05:16:41.627Z,1016.48
2018-05-25T05:17:51.589Z,1016.48
2018-05-25T05:19:01.330Z,1016.48
2018-05-25T05:20:11.301Z,1016.49
2018-05-25T05:21:21.294Z,1016.51
2018-05-25T05:22:31.273Z,1016.51
2018-05-25T05:23:40.996Z,1016.53
2018-05-25T05:24:50.997Z,1016.5
2018-05-25T05:26:00.980Z,1016.51
2018-05-25T05:27:10.959Z,1016.52
2018-05-25T05:28:20.681Z,1016.5
2018-05-25T05:29:30.645Z,1016.53
2018-05-25T05:30:40.632Z,1016.53
2018-05-25T05:31:50.594Z,1016.58
2018-05-25T05:33:00.571Z,1016.5
2018-05-25T05:34:10.293Z,1016.52
2018-05-25T05:35:20.272Z,1016.5
2018-05-25T05:36:30.242Z,1016.52
2018-05-25T05:37:40.203Z,1016.5
2018-05-25T05:38:50.180Z,1016.53
2018-05-25T05:40:00.184Z,1016.53
2018-05-25T05:41:10.155Z,1016.55
2018-05-25T05:42:20.187Z,1016.55
2018-05-25T05:43:30.159Z,1016.54
2018-05-25T05:44:40.126Z,1016.57
2018-05-25T05:45:49.839Z,1016.58
2018-05-25T05:46:59.817Z,1016.53
2018-05-25T05:48:09.810Z,1016.59
2018-05-25T05:49:19.522Z,1016.59
2018-05-25T05:50:29.500Z,1016.59
2018-05-25T05:51:39.477Z,1016.61
2018-05-25T05:52:49.192Z,1016.6
2018-05-25T05:53:58.904Z,1016.6
2018-05-25T05:55:08.895Z,1016.6
2018-05-25T05:56:18.894Z,1016.58
2018-05-25T05:57:28.879Z,1016.63
2018-05-25T05:58:38.855Z,1016.62
2018-05-25T05:59:48.896Z,1016.62
2018-05-25T06:00:58.631Z,1016.58
2018-05-25T06:02:08.612Z,1016.57
2018-05-25T06:03:18.613Z,1016.59
2018-05-25T06:04:28.611Z,1016.58
2018-05-25T06:05:38.582Z,1016.57
2018-05-25T06:06:48.299Z,1016.59
2018-05-25T06:07:58.283Z,1016.56
2018-05-25T06:09:08.005Z,1016.59
2018-05-25T06:10:18.013Z,1016.54
2018-05-25T06:11:27.996Z,1016.51
2018-05-25T06:12:37.467Z,1016.52
2018-05-25T06:13:47.196Z,1016.53
2018-05-25T06:14:56.416Z,1016.52
2018-05-25T06:16:06.386Z,1016.54
2018-05-25T06:17:15.842Z,1016.51
2018-05-25T06:18:25.816Z,1016.52
2018-05-25T06:19:35.816Z,1016.56
2018-05-25T06:20:45.790Z,1016.53
2018-05-25T06:21:55.767Z,1016.55
2018-05-25T06:23:05.759Z,1016.57
2018-05-25T06:24:15.774Z,1016.55
2018-05-25T06:25:25.816Z,1016.57
2018-05-25T06:26:35.532Z,1016.54
2018-05-25T06:27:45.508Z,1016.56
2018-05-25T06:28:55.486Z,1016.49
2018-05-25T06:30:05.489Z,1016.59
2018-05-25T06:31:15.469Z,1016.55
2018-05-25T06:32:25.454Z,1016.55
2018-05-25T06:33:35.433Z,1016.51
2018-05-25T06:34:44.931Z,1016.51
2018-05-25T06:35:54.899Z,1016.49
2018-05-25T06:37:04.874Z,1016.48
2018-05-25T06:38:14.842Z,1016.51
2018-05-25T06:39:24.827Z,1016.51
2018-05-25T06:40:34.533Z,1016.53
2018-05-25T06:41:44.505Z,1016.56
2018-05-25T06:42:54.337Z,1016.56
2018-05-25T06:44:04.312Z,1016.52
2018-05-25T06:45:14.314Z,1016.54
2018-05-25T06:46:24.042Z,1016.55
2018-05-25T06:47:34.022Z,1016.55
2018-05-25T06:48:43.988Z,1016.52
2018-05-25T06:49:53.970Z,1016.51
2018-05-25T06:51:03.693Z,1016.52
2018-05-25T06:52:13.697Z,1016.52
2018-05-25T06:53:23.719Z,1016.53
2018-05-25T06:54:33.468Z,1016.54
2018-05-25T06:55:42.937Z,1016.48
2018-05-25T06:56:52.912Z,1016.48
2018-05-25T06:58:02.698Z,1016.4
2018-05-25T06:59:12.765Z,1016.46
2018-05-25T07:00:22.520Z,1016.45
2018-05-25T07:01:32.590Z,1016.47
2018-05-25T07:02:42.591Z,1016.43
2018-05-25T07:03:52.615Z,1016.4
2018-05-25T07:05:03.176Z,1016.41
2018-05-25T07:06:12.901Z,1016.4
2018-05-25T07:07:22.915Z,1016.39
2018-05-25T07:08:32.746Z,1016.45
2018-05-25T07:09:42.729Z,1016.41
2018-05-25T07:10:52.703Z,1016.42
2018-05-25T07:12:02.705Z,1016.41
2018-05-25T07:13:12.717Z,1016.39
2018-05-25T07:14:22.253Z,1016.37
2018-05-25T07:15:32.252Z,1016.37
2018-05-25T07:16:42.008Z,1016.36
2018-05-25T07:17:52.004Z,1016.38
2018-05-25T07:19:02.016Z,1016.38
2018-05-25T07:20:12.044Z,1016.4
2018-05-25T07:21:22.085Z,1016.38
2018-05-25T07:22:32.083Z,1016.41
2018-05-25T07:23:41.826Z,1016.42
2018-05-25T07:24:51.828Z,1016.44
2018-05-25T07:26:01.564Z,1016.37
2018-05-25T07:27:11.033Z,1016.37
2018-05-25T07:28:20.768Z,1016.33
2018-05-25T07:29:30.764Z,1016.37
2018-05-25T07:30:40.758Z,1016.36
2018-05-25T07:31:50.751Z,1016.37
2018-05-25T07:33:00.764Z,1016.37
2018-05-25T07:34:10.748Z,1016.38
2018-05-25T07:35:20.720Z,1016.39
2018-05-25T07:36:30.450Z,1016.41
2018-05-25T07:37:40.426Z,1016.36
2018-05-25T07:38:50.459Z,1016.42
2018-05-25T07:40:00.446Z,1016.36
2018-05-25T07:41:10.435Z,1016.41
2018-05-25T07:42:20.411Z,1016.4
2018-05-25T07:43:30.381Z,1016.41
2018-05-25T07:44:40.369Z,1016.43
2018-05-25T07:45:50.368Z,1016.48
2018-05-25T07:47:00.336Z,1016.45
2018-05-25T07:48:10.069Z,1016.46
2018-05-25T07:49:19.803Z,1016.43
2018-05-25T07:50:29.538Z,1016.46
2018-05-25T07:51:39.534Z,1016.47
2018-05-25T07:52:49.580Z,1016.42
2018-05-25T07:53:59.305Z,1016.45
2018-05-25T07:55:08.755Z,1016.45
2018-05-25T07:56:18.760Z,1016.49
2018-05-25T07:57:28.787Z,1016.48
2018-05-25T07:58:38.548Z,1016.46
2018-05-25T07:59:48.535Z,1016.46
2018-05-25T08:00:58.274Z,1016.45
2018-05-25T08:02:08.462Z,1016.47
2018-05-25T08:03:18.740Z,1016.41
2018-05-25T08:04:28.722Z,1016.47
2018-05-25T08:05:38.452Z,1016.49
2018-05-25T08:06:48.467Z,1016.48
2018-05-25T08:07:58.449Z,1016.47
2018-05-25T08:09:08.453Z,1016.43
2018-05-25T08:10:18.172Z,1016.51
2018-05-25T08:11:28.175Z,1016.48
2018-05-25T08:12:37.909Z,1016.5
2018-05-25T08:13:47.665Z,1016.5
2018-05-25T08:14:57.672Z,1016.48
2018-05-25T08:16:07.913Z,1016.52
2018-05-25T08:17:17.906Z,1016.5
2018-05-25T08:18:27.885Z,1016.48
2018-05-25T08:19:37.642Z,1016.44
2018-05-25T08:20:47.171Z,1016.44
2018-05-25T08:21:57.194Z,1016.46
2018-05-25T08:23:07.472Z,1016.47
2018-05-25T08:24:17.489Z,1016.43
2018-05-25T08:25:27.473Z,1016.43
2018-05-25T08:26:37.467Z,1016.44
2018-05-25T08:27:47.230Z,1016.4
2018-05-25T08:28:57.234Z,1016.47
2018-05-25T08:30:07.247Z,1016.42
2018-05-25T08:31:17.119Z,1016.48
2018-05-25T08:32:27.199Z,1016.46
2018-05-25T08:33:37.187Z,1016.55
2018-05-25T08:34:46.958Z,1016.52
2018-05-25T08:35:56.979Z,1016.47
2018-05-25T08:37:06.965Z,1016.51
2018-05-25T08:38:16.967Z,1016.48
2018-05-25T08:39:26.993Z,1016.47
2018-05-25T08:40:37.013Z,1016.52
2018-05-25T08:41:47.005Z,1016.56
2018-05-25T08:42:57.000Z,1016.5
2018-05-25T08:44:07.021Z,1016.51
2018-05-25T08:45:16.860Z,1016.5
2018-05-25T08:46:26.831Z,1016.48
2018-05-25T08:47:36.886Z,1016.51
2018-05-25T08:48:46.614Z,1016.5
2018-05-25T08:49:56.085Z,1016.5
2018-05-25T08:51:05.605Z,1016.48
2018-05-25T08:52:15.603Z,1016.51
2018-05-25T08:53:25.600Z,1016.49
2018-05-25T08:54:35.590Z,1016.49
2018-05-25T08:55:45.338Z,1016.48
2018-05-25T08:56:55.064Z,1016.53
2018-05-25T08:58:04.786Z,1016.54
2018-05-25T08:59:14.566Z,1016.5
2018-05-25T09:00:24.586Z,1016.44
2018-05-25T09:01:34.380Z,1016.43
2018-05-25T09:02:44.409Z,1016.42
2018-05-25T09:03:54.168Z,1016.49
2018-05-25T09:05:04.278Z,1016.48
2018-05-25T09:06:14.290Z,1016.47
2018-05-25T09:07:24.291Z,1016.46
2018-05-25T09:08:34.257Z,1016.45
2018-05-25T09:09:44.260Z,1016.5
2018-05-25T09:10:54.269Z,1016.51
2018-05-25T09:12:04.034Z,1016.47
2018-05-25T09:13:14.087Z,1016.48
2018-05-25T09:14:23.812Z,1016.48
2018-05-25T09:15:33.868Z,1016.47
2018-05-25T09:16:43.359Z,1016.47
2018-05-25T09:17:53.337Z,1016.45
2018-05-25T09:19:03.326Z,1016.43
2018-05-25T09:20:13.051Z,1016.41
2018-05-25T09:21:22.782Z,1016.41
2018-05-25T09:22:32.782Z,1016.41
2018-05-25T09:23:42.773Z,1016.4
2018-05-25T09:24:52.249Z,1016.31
2018-05-25T09:26:02.256Z,1016.41
2018-05-25T09:27:12.243Z,1016.39
2018-05-25T09:28:22.269Z,1016.37
2018-05-25T09:29:32.285Z,1016.39
2018-05-25T09:30:42.061Z,1016.38
2018-05-25T09:31:51.911Z,1016.37
2018-05-25T09:33:01.656Z,1016.4
2018-05-25T09:34:11.910Z,1016.42
2018-05-25T09:35:21.674Z,1016.39
2018-05-25T09:36:31.668Z,1016.41
2018-05-25T09:37:41.431Z,1016.42
2018-05-25T09:38:51.414Z,1016.37
2018-05-25T09:40:01.438Z,1016.35
2018-05-25T09:41:11.443Z,1016.3
2018-05-25T09:42:21.181Z,1016.26
2018-05-25T09:43:31.306Z,1016.27
2018-05-25T09:44:41.359Z,1016.28
2018-05-25T09:45:51.115Z,1016.31
2018-05-25T09:47:01.110Z,1016.35
2018-05-25T09:48:11.115Z,1016.31
2018-05-25T09:49:20.876Z,1016.3
2018-05-25T09:50:30.880Z,1016.31
2018-05-25T09:51:40.619Z,1016.22
2018-05-25T09:52:50.617Z,1016.28
2018-05-25T09:54:00.633Z,1016.22
2018-05-25T09:55:10.651Z,1016.22
2018-05-25T09:56:20.641Z,1016.3
2018-05-25T09:57:30.411Z,1016.23
2018-05-25T09:58:40.410Z,1016.29
2018-05-25T09:59:50.151Z,1016.23
2018-05-25T10:01:00.191Z,1016.19
2018-05-25T10:02:09.925Z,1016.23
2018-05-25T10:03:19.406Z,1016.16
2018-05-25T10:04:29.431Z,1016.12
2018-05-25T10:05:38.907Z,1016.2
2018-05-25T10:06:48.991Z,1016.16
2018-05-25T10:07:59.002Z,1016.13
2018-05-25T10:09:09.014Z,1016.08
2018-05-25T10:10:18.823Z,1016.1
2018-05-25T10:11:28.908Z,1016.06
2018-05-25T10:12:38.912Z,1016.09
2018-05-25T10:13:48.681Z,1016.09
2018-05-25T10:14:58.682Z,1016.08
2018-05-25T10:16:08.682Z,1016.08
2018-05-25T10:17:18.705Z,1016.11
2018-05-25T10:18:28.711Z,1015.97
2018-05-25T10:19:38.742Z,1015.98
2018-05-25T10:20:48.726Z,1016.04
2018-05-25T10:21:58.194Z,1016.08
2018-05-25T10:23:08.227Z,1016.11
2018-05-25T10:24:18.221Z,1016.11
2018-05-25T10:25:27.971Z,1016.1
2018-05-25T10:26:37.991Z,1016.04
2018-05-25T10:27:47.992Z,1016.11
2018-05-25T10:28:57.724Z,1016.15
2018-05-25T10:30:07.742Z,1016.02
2018-05-25T10:31:17.540Z,1016.05
2018-05-25T10:32:27.561Z,1016.09
2018-05-25T10:33:37.553Z,1016.16
2018-05-25T10:34:47.585Z,1016.15
2018-05-25T10:35:57.590Z,1016.1
2018-05-25T10:37:07.595Z,1016.01
2018-05-25T10:38:17.604Z,1015.96
2018-05-25T10:39:27.346Z,1016.02
2018-05-25T10:40:37.350Z,1016.03
2018-05-25T10:41:47.577Z,1016.07
2018-05-25T10:42:57.778Z,1016.01
2018-05-25T10:44:07.782Z,1016.11
2018-05-25T10:45:17.796Z,1016.02
2018-05-25T10:46:27.799Z,1015.99
2018-05-25T10:47:37.796Z,1015.97
2018-05-25T10:48:47.559Z,1015.99
2018-05-25T10:49:57.035Z,1016.03
2018-05-25T10:51:07.054Z,1016.01
2018-05-25T10:52:17.054Z,1015.92
2018-05-25T10:53:27.006Z,1015.92
2018-05-25T10:54:36.756Z,1015.9
2018-05-25T10:55:46.749Z,1015.94
2018-05-25T10:56:56.920Z,1015.92
2018-05-25T10:58:06.931Z,1015.82
2018-05-25T10:59:16.945Z,1015.9
2018-05-25T11:00:26.737Z,1015.8
2018-05-25T11:01:36.942Z,1015.87
2018-05-25T11:02:46.949Z,1015.89
2018-05-25T11:03:56.418Z,1015.87
2018-05-25T11:05:06.419Z,1015.82
2018-05-25T11:06:16.424Z,1015.83
2018-05-25T11:07:26.412Z,1015.86
2018-05-25T11:08:36.149Z,1015.79
2018-05-25T11:09:45.882Z,1015.84
2018-05-25T11:10:55.944Z,1015.85
2018-05-25T11:12:05.940Z,1015.78
2018-05-25T11:13:15.952Z,1015.76
2018-05-25T11:14:25.947Z,1015.74
2018-05-25T11:15:35.692Z,1015.82
2018-05-25T11:16:45.717Z,1015.78
2018-05-25T11:17:55.723Z,1015.77
2018-05-25T11:19:05.732Z,1015.8
2018-05-25T11:20:15.796Z,1015.73
2018-05-25T11:21:25.808Z,1015.8
2018-05-25T11:22:35.845Z,1015.78
2018-05-25T11:23:45.863Z,1015.76
2018-05-25T11:24:55.861Z,1015.69
2018-05-25T11:26:05.858Z,1015.73
2018-05-25T11:27:15.865Z,1015.65
2018-05-25T11:28:25.885Z,1015.66
2018-05-25T11:29:35.640Z,1015.68
2018-05-25T11:30:45.383Z,1015.64
2018-05-25T11:31:55.127Z,1015.63
2018-05-25T11:33:05.115Z,1015.67
2018-05-25T11:34:15.112Z,1015.63
2018-05-25T11:35:25.106Z,1015.66
2018-05-25T11:36:35.134Z,1015.66
2018-05-25T11:37:44.884Z,1015.65
2018-05-25T11:38:54.892Z,1015.64
2018-05-25T11:40:04.894Z,1015.63
2018-05-25T11:41:14.916Z,1015.6
2018-05-25T11:42:24.655Z,1015.61
2018-05-25T11:43:34.647Z,1015.6
2018-05-25T11:44:44.636Z,1015.53
2018-05-25T11:45:54.643Z,1015.44
2018-05-25T11:47:04.390Z,1015.44
2018-05-25T11:48:14.402Z,1015.45
2018-05-25T11:49:24.148Z,1015.52
2018-05-25T11:50:33.892Z,1015.5
2018-05-25T11:51:43.943Z,1015.46
2018-05-25T11:52:53.706Z,1015.46
2018-05-25T11:54:03.614Z,1015.49
2018-05-25T11:55:13.622Z,1015.48
2018-05-25T11:56:23.137Z,1015.54
2018-05-25T11:57:33.155Z,1015.49
2018-05-25T11:58:43.171Z,1015.41
2018-05-25T11:59:52.912Z,1015.45
2018-05-25T12:01:02.652Z,1015.4
2018-05-25T12:02:12.655Z,1015.42
2018-05-25T12:03:22.649Z,1015.41
2018-05-25T12:04:32.404Z,1015.36
2018-05-25T12:05:42.401Z,1015.41
2018-05-25T12:06:52.138Z,1015.42
2018-05-25T12:08:02.146Z,1015.39
2018-05-25T12:09:12.151Z,1015.43
2018-05-25T12:10:21.906Z,1015.4
2018-05-25T12:11:31.900Z,1015.4
2018-05-25T12:12:41.893Z,1015.38
2018-05-25T12:13:51.641Z,1015.43
2018-05-25T12:15:01.647Z,1015.34
2018-05-25T12:16:11.642Z,1015.33
2018-05-25T12:17:21.650Z,1015.3
2018-05-25T12:18:31.643Z,1015.34
2018-05-25T12:19:41.404Z,1015.37
2018-05-25T12:20:51.139Z,1015.29
2018-05-25T12:22:00.868Z,1015.29
2018-05-25T12:23:10.860Z,1015.31
2018-05-25T12:24:20.596Z,1015.26
2018-05-25T12:25:30.355Z,1015.18
2018-05-25T12:26:40.117Z,1015.21
2018-05-25T12:27:49.607Z,1015.26
2018-05-25T12:28:59.363Z,1015.28
2018-05-25T12:30:09.129Z,1015.27
2018-05-25T12:31:18.861Z,1015.21
2018-05-25T12:32:28.335Z,1015.17
2018-05-25T12:33:38.345Z,1015.16
2018-05-25T12:34:48.343Z,1015.15
2018-05-25T12:35:58.348Z,1015.11
2018-05-25T12:37:08.079Z,1015.14
2018-05-25T12:38:18.072Z,1015.11
2018-05-25T12:39:28.083Z,1015.13
2018-05-25T12:40:38.094Z,1015.16
2018-05-25T12:41:47.829Z,1015.15
2018-05-25T12:42:57.317Z,1015.15
2018-05-25T12:44:07.319Z,1015.12
2018-05-25T12:45:17.322Z,1015.15
2018-05-25T12:46:27.049Z,1015.17
2018-05-25T12:47:37.042Z,1015.12
2018-05-25T12:48:47.282Z,1015.09
2018-05-25T12:49:57.315Z,1015.09
2018-05-25T12:51:07.308Z,1015.14
2018-05-25T12:52:17.035Z,1015.1
2018-05-25T12:53:27.014Z,1015.04
2018-05-25T12:54:37.038Z,1015
2018-05-25T12:55:47.030Z,1015.04
2018-05-25T12:56:56.761Z,1015.05
2018-05-25T12:58:06.765Z,1014.98
2018-05-25T12:59:16.515Z,1015.01
2018-05-25T13:00:26.520Z,1014.99
2018-05-25T13:01:36.518Z,1014.97
2018-05-25T13:02:46.255Z,1015.01
2018-05-25T13:03:55.986Z,1014.96
2018-05-25T13:05:05.765Z,1014.95
2018-05-25T13:06:15.774Z,1014.93
2018-05-25T13:07:25.791Z,1014.89
2018-05-25T13:08:35.790Z,1014.94
2018-05-25T13:09:45.800Z,1014.9
2018-05-25T13:10:55.806Z,1014.87
2018-05-25T13:12:05.809Z,1014.87
2018-05-25T13:13:15.572Z,1014.93
2018-05-25T13:14:25.553Z,1014.89
2018-05-25T13:15:35.022Z,1014.87
2018-05-25T13:16:45.016Z,1014.92
2018-05-25T13:17:54.494Z,1014.9
2018-05-25T13:19:03.957Z,1014.91
2018-05-25T13:20:13.959Z,1014.91
2018-05-25T13:21:23.973Z,1014.89
2018-05-25T13:22:33.991Z,1014.86
2018-05-25T13:23:43.976Z,1014.88
2018-05-25T13:24:53.979Z,1014.88
2018-05-25T13:26:03.725Z,1014.9
2018-05-25T13:27:13.730Z,1014.85
2018-05-25T13:28:23.725Z,1014.86
2018-05-25T13:29:33.723Z,1014.85
2018-05-25T13:30:43.731Z,1014.85
2018-05-25T13:31:53.457Z,1014.84
2018-05-25T13:33:03.451Z,1014.87
2018-05-25T13:34:13.457Z,1014.9
2018-05-25T13:35:23.184Z,1014.92
2018-05-25T13:36:33.172Z,1014.83
2018-05-25T13:37:43.180Z,1014.82
2018-05-25T13:38:52.903Z,1014.77
2018-05-25T13:40:02.898Z,1014.82
2018-05-25T13:41:12.911Z,1014.85
2018-05-25T13:42:22.906Z,1014.85
2018-05-25T13:43:32.636Z,1014.86
2018-05-25T13:44:42.637Z,1014.85
2018-05-25T13:45:52.645Z,1014.82
2018-05-25T13:47:02.642Z,1014.78
2018-05-25T13:48:12.376Z,1014.88
2018-05-25T13:49:22.372Z,1014.91
2018-05-25T13:50:32.194Z,1014.86
2018-05-25T13:51:41.937Z,1014.83
2018-05-25T13:52:51.943Z,1014.86
2018-05-25T13:54:01.931Z,1014.86
2018-05-25T13:55:11.681Z,1014.85
2018-05-25T13:56:21.696Z,1014.85
2018-05-25T13:57:31.425Z,1014.79
2018-05-25T13:58:41.431Z,1014.79
2018-05-25T13:59:51.154Z,1014.78
2018-05-25T14:01:01.136Z,1014.81
2018-05-25T14:02:10.855Z,1014.81
2018-05-25T14:03:20.585Z,1014.75
2018-05-25T14:04:30.312Z,1014.72
2018-05-25T14:05:40.062Z,1014.76
2018-05-25T14:06:50.059Z,1014.77
2018-05-25T14:08:00.041Z,1014.77
2018-05-25T14:09:10.057Z,1014.81